Hauptseite
METAR-TAF:

METAR-TAF

Flughäfen :

Algier, Algerien

Flughafen Algier

Breite: 36-43N, Länge: 003-15E, Höhe: 25 m

Beobachtung

Neuester Wetterbericht von vor 17 Minuten, um 14:30 UTC
Wind 5 kt aus Nord, variierte zwischen West und Nordost
Temperatur 25°C
Luftfeuchtigkeit 26%
Luftdruck 1021 hPa
Sichtweite 10 km oder mehr
keine Wolken unter 1500 m und keine Kumulonimbus oder Gewitterwolken

METAR: DAAG 241430Z 36005KT 280V040 CAVOK 25/04 Q1021

Zeit: 15:47 (14:47 UTC)

Prognose

Neuester Wetterbericht von vor 3 Stunden und 47 Minuten, um 11:00 UTC
Gültige Prognose vom 24 um 12 UTC bis 25 um 12 UTC
Wind 2 kt aus unterschiedlichen Richtungen
Sichtweite 10 km oder mehr
keine Wolken unter 1500 m und keine Kumulonimbus oder Gewitterwolken

TAF: DAAG 241100Z 2412/2512 VRB02KT CAVOK

Wetterbeobachtungen und Prognosen von mehr als 4000 Flughäfen (METAR und TAF Bericht).

Die verfügbaren Stationen werden durch gelbe und rote Markierungen auf der Karte dargestellt.

Führen Sie die Maus auf sie, um den Namen der Station zu sehen.

Darauf klicken, um die Beobachtung von Wetterbeobachtungen und Prognosen zu sehen.

Um die Karte zu ändern : klicken Sie auf den grünen Tasten mit einem schwarzen Kreuz Zum Vergrößern, auf den grünen Button mit einem Gedankenstrich zu verkleinern, oder auf die grünen Pfeile für benachbarte Karten.


METAR-TAF: